Time;durP1;ratioP1;P1;durP2;ratioP2;P2;SDS_P1;SDS_P2;PMS_P1;PMS_P2;Temp;Humidity;BMP_temperature;BMP_pressure;BME280_temperature;BME280_humidity;BME280_pressure;Samples;Min_cycle;Max_cycle;Signal;HPM_P1;HPM_P2
2023/02/09 00:04:40;;;;;;;4.05;2.63;;;17.60;56.00;;;;;;10571072;28;20483;-23
2023/02/09 00:09:43;;;;;;;4.68;2.47;;;17.60;55.80;;;;;;10587174;27;20123;-24
2023/02/09 00:14:45;;;;;;;3.53;2.50;;;17.60;55.80;;;;;;10554945;28;20059;-24
2023/02/09 00:19:48;;;;;;;4.20;2.83;;;17.60;55.70;;;;;;10570054;27;20446;-25
2023/02/09 00:24:50;;;;;;;4.75;2.78;;;17.50;55.80;;;;;;10564807;28;20475;-25
2023/02/09 00:29:52;;;;;;;5.20;2.43;;;17.60;55.70;;;;;;10574761;27;20706;-24
2023/02/09 00:34:55;;;;;;;4.13;2.50;;;17.50;55.60;;;;;;10574442;27;21028;-24
2023/02/09 00:39:57;;;;;;;4.20;2.60;;;17.40;55.50;;;;;;10571932;28;20497;-25
2023/02/09 00:44:59;;;;;;;4.07;2.40;;;17.50;55.70;;;;;;10571493;28;20484;-25
2023/02/09 00:50:05;;;;;;;4.80;2.13;;;17.40;55.50;;;;;;10567051;28;20384;-25
2023/02/09 00:55:07;;;;;;;3.97;2.20;;;17.40;55.70;;;;;;10571269;28;20075;-24
2023/02/09 01:00:12;;;;;;;4.32;2.35;;;17.40;55.70;;;;;;10578226;27;20056;-22
2023/02/09 01:05:16;;;;;;;3.67;2.58;;;17.30;55.70;;;;;;10563211;28;20096;-24
2023/02/09 01:10:18;;;;;;;3.35;2.25;;;17.40;55.80;;;;;;10566129;27;20492;-25
2023/02/09 01:15:20;;;;;;;3.80;2.20;;;17.30;55.80;;;;;;10561912;27;20085;-24
2023/02/09 01:20:23;;;;;;;3.55;2.72;;;17.20;55.50;;;;;;10561940;28;20051;-25
2023/02/09 01:25:25;;;;;;;3.70;1.85;;;17.20;55.70;;;;;;10565485;28;20105;-24
2023/02/09 01:30:28;;;;;;;3.20;2.00;;;17.20;55.70;;;;;;10570853;28;20509;-24
2023/02/09 01:35:31;;;;;;;3.90;2.17;;;17.20;55.70;;;;;;10572271;28;20052;-24
2023/02/09 01:40:33;;;;;;;3.22;2.30;;;17.20;55.70;;;;;;10562709;27;20499;-25
2023/02/09 01:45:38;;;;;;;2.73;2.23;;;17.10;55.50;;;;;;10566057;28;20073;-25
2023/02/09 01:50:45;;;;;;;3.33;2.58;;;17.10;55.60;;;;;;10551117;28;20490;-26
2023/02/09 01:55:51;;;;;;;4.68;2.60;;;17.10;55.80;;;;;;10564427;27;20044;-26
2023/02/09 02:00:54;;;;;;;4.22;2.35;;;17.00;55.60;;;;;;10552187;28;20120;-25
2023/02/09 02:05:59;;;;;;;6.53;3.03;;;16.70;56.20;;;;;;10559370;28;20051;-24
2023/02/09 02:11:01;;;;;;;3.90;2.58;;;16.90;55.80;;;;;;10571420;27;20047;-25
2023/02/09 02:16:11;;;;;;;2.95;2.47;;;17.00;55.40;;;;;;10571195;28;20051;-24
2023/02/09 02:21:44;;;;;;;3.92;2.50;;;16.90;55.20;;;;;;10568883;27;20059;-26
2023/02/09 02:26:55;;;;;;;4.57;2.73;;;17.00;55.40;;;;;;10548927;27;20830;-25
2023/02/09 02:32:09;;;;;;;5.18;2.97;;;17.00;55.40;;;;;;10559023;28;20124;-24
2023/02/09 02:37:28;;;;;;;6.25;3.70;;;17.00;55.30;;;;;;10572531;27;20047;-25
2023/02/09 02:42:50;;;;;;;4.82;2.60;;;16.80;55.00;;;;;;10572011;28;20115;-24
2023/02/09 02:48:00;;;;;;;2.92;2.58;;;16.80;55.50;;;;;;10569250;27;20136;-24
2023/02/09 02:53:05;;;;;;;3.42;2.40;;;16.80;55.50;;;;;;10573543;28;20071;-24
2023/02/09 02:58:11;;;;;;;4.13;2.80;;;16.80;55.50;;;;;;10571420;28;20235;-25
2023/02/09 03:03:18;;;;;;;5.65;3.00;;;16.80;55.30;;;;;;10567453;28;20487;-24
2023/02/09 03:08:20;;;;;;;5.03;2.30;;;16.60;55.40;;;;;;10564248;28;20100;-24
2023/02/09 03:13:36;;;;;;;6.07;2.40;;;16.80;55.60;;;;;;10563807;28;20106;-24
2023/02/09 03:18:46;;;;;;;5.32;2.38;;;16.80;55.00;;;;;;10564284;28;20521;-23
2023/02/09 03:23:56;;;;;;;3.75;2.58;;;16.80;55.20;;;;;;10564907;28;20109;-24
2023/02/09 03:29:00;;;;;;;4.47;2.40;;;16.70;55.20;;;;;;10572503;28;20079;-25
2023/02/09 03:34:05;;;;;;;4.10;2.53;;;16.80;55.30;;;;;;10571841;28;20052;-25
2023/02/09 03:39:07;;;;;;;4.57;2.90;;;16.80;55.30;;;;;;10573346;27;20082;-25
2023/02/09 03:44:27;;;;;;;3.67;2.57;;;16.70;55.10;;;;;;10568118;28;20048;-25
2023/02/09 03:49:33;;;;;;;3.83;2.67;;;16.70;55.30;;;;;;10573751;28;20481;-26
2023/02/09 03:54:35;;;;;;;4.00;2.60;;;16.70;55.00;;;;;;10565378;28;20141;-25
2023/02/09 03:59:38;;;;;;;4.22;2.60;;;16.70;55.20;;;;;;10570774;28;20056;-26
2023/02/09 04:04:42;;;;;;;3.78;2.50;;;16.60;55.20;;;;;;10570001;28;20071;-24
2023/02/09 04:09:43;;;;;;;3.53;2.30;;;16.60;55.20;;;;;;10583473;27;20074;-25
2023/02/09 04:14:45;;;;;;;4.03;2.77;;;16.60;55.40;;;;;;10568245;27;20137;-24
2023/02/09 04:19:49;;;;;;;7.63;2.77;;;16.60;55.20;;;;;;10563309;28;20044;-24
2023/02/09 04:24:50;;;;;;;4.88;2.63;;;16.60;55.40;;;;;;10559338;28;20055;-24
2023/02/09 04:29:52;;;;;;;5.13;2.70;;;16.50;55.20;;;;;;10563360;27;20051;-25
2023/02/09 04:34:55;;;;;;;5.40;2.97;;;16.60;54.90;;;;;;10562496;27;20052;-24
2023/02/09 04:39:57;;;;;;;4.55;3.20;;;16.60;54.90;;;;;;10563473;28;20075;-23
2023/02/09 04:45:00;;;;;;;4.83;3.77;;;16.20;55.00;;;;;;10566477;28;20491;-25
2023/02/09 04:50:03;;;;;;;3.90;2.78;;;16.30;52.50;;;;;;10577091;28;20055;-25
2023/02/09 04:55:05;;;;;;;7.78;4.43;;;16.70;55.20;;;;;;10563228;27;20460;-26
2023/02/09 05:00:09;;;;;;;5.68;3.08;;;16.50;54.70;;;;;;10575548;28;20074;-26
2023/02/09 05:05:12;;;;;;;8.82;4.70;;;16.00;56.50;;;;;;10573905;27;20130;-26
2023/02/09 05:10:14;;;;;;;6.80;4.70;;;15.50;56.80;;;;;;10576526;27;20048;-25
2023/02/09 05:15:16;;;;;;;5.63;2.97;;;15.10;54.80;;;;;;10561447;27;20055;-25
2023/02/09 05:20:19;;;;;;;6.70;4.67;;;15.50;58.30;;;;;;10555690;27;20051;-25
2023/02/09 05:25:21;;;;;;;8.73;4.25;;;14.90;56.40;;;;;;10551720;28;20131;-25
2023/02/09 05:30:23;;;;;;;7.00;3.13;;;15.20;56.60;;;;;;10568453;28;20043;-25
2023/02/09 05:35:26;;;;;;;4.17;3.40;;;15.90;55.70;;;;;;10558255;28;20135;-24
2023/02/09 05:40:28;;;;;;;4.00;2.97;;;16.20;55.50;;;;;;10575679;28;20043;-24
2023/02/09 05:45:30;;;;;;;5.23;3.40;;;16.80;54.00;;;;;;10565709;28;20063;-24
2023/02/09 05:50:34;;;;;;;5.72;2.83;;;17.40;53.30;;;;;;10568910;27;20097;-24
2023/02/09 05:55:36;;;;;;;3.50;2.50;;;17.40;53.10;;;;;;10565813;28;20062;-24
2023/02/09 06:00:38;;;;;;;3.17;2.58;;;17.30;53.20;;;;;;10569984;27;20476;-23
2023/02/09 06:05:44;;;;;;;4.20;2.85;;;17.60;52.70;;;;;;10565892;28;20075;-26
2023/02/09 06:10:46;;;;;;;3.13;2.42;;;17.60;52.80;;;;;;10571591;27;20079;-24
2023/02/09 06:15:48;;;;;;;3.58;2.38;;;17.60;52.90;;;;;;10569084;27;20079;-24
2023/02/09 06:20:53;;;;;;;6.13;2.45;;;17.70;52.80;;;;;;10548002;28;20044;-25
2023/02/09 06:25:55;;;;;;;3.80;2.33;;;17.70;52.70;;;;;;10542922;28;20465;-25
2023/02/09 06:30:57;;;;;;;3.60;2.28;;;17.60;52.70;;;;;;10556068;28;20116;-25
2023/02/09 06:36:00;;;;;;;3.50;2.08;;;17.70;52.80;;;;;;10553481;27;20048;-25
2023/02/09 06:41:03;;;;;;;3.47;2.10;;;17.80;52.80;;;;;;10552742;27;20150;-24
2023/02/09 06:46:06;;;;;;;4.38;2.00;;;17.70;52.70;;;;;;10564535;28;20071;-25
2023/02/09 06:51:11;;;;;;;4.13;2.72;;;17.70;52.80;;;;;;10549418;28;20058;-24
2023/02/09 06:56:14;;;;;;;5.72;2.40;;;17.70;52.80;;;;;;10542563;28;20402;-25
2023/02/09 07:01:16;;;;;;;3.85;2.15;;;17.80;52.80;;;;;;10548142;27;20055;-24
2023/02/09 07:15:16;;;;;;;5.18;2.70;;;17.70;52.30;;;;;;10486472;27;20117;-26
2023/02/09 07:20:18;;;;;;;3.75;2.28;;;17.80;52.80;;;;;;10477058;28;20077;-24
2023/02/09 07:25:20;;;;;;;4.75;2.17;;;17.70;52.70;;;;;;10478879;28;20159;-25
2023/02/09 07:30:23;;;;;;;3.38;1.95;;;17.70;52.70;;;;;;10476013;28;20054;-25
2023/02/09 07:35:25;;;;;;;2.70;1.80;;;17.70;52.70;;;;;;10475300;28;20053;-25
2023/02/09 07:40:27;;;;;;;4.30;2.50;;;17.70;52.80;;;;;;10466305;28;20045;-25
2023/02/09 07:45:30;;;;;;;2.58;1.65;;;17.70;52.60;;;;;;10478003;28;20075;-25
2023/02/09 07:50:32;;;;;;;3.88;1.90;;;17.60;52.80;;;;;;10475319;28;20077;-24
2023/02/09 07:55:34;;;;;;;4.10;2.03;;;17.50;52.90;;;;;;10472856;28;20393;-25
2023/02/09 08:00:37;;;;;;;3.90;2.22;;;17.40;53.30;;;;;;10478111;28;20083;-26
2023/02/09 08:05:45;;;;;;;4.57;2.85;;;17.50;53.10;;;;;;10479783;28;20056;-24
2023/02/09 08:10:47;;;;;;;4.93;2.58;;;16.90;54.00;;;;;;10477523;28;20140;-24
2023/02/09 08:15:53;;;;;;;4.68;2.33;;;17.30;53.60;;;;;;10478201;28;20048;-25
2023/02/09 08:20:55;;;;;;;4.10;2.00;;;17.30;53.70;;;;;;10477394;28;20057;-24
2023/02/09 08:25:59;;;;;;;4.78;1.98;;;17.10;53.90;;;;;;10449599;28;20075;-26
2023/02/09 08:31:03;;;;;;;2.70;1.90;;;17.20;54.70;;;;;;10450145;28;20053;-25
2023/02/09 08:36:05;;;;;;;6.97;2.22;;;17.20;54.50;;;;;;10439907;28;20053;-25
2023/02/09 08:41:09;;;;;;;3.38;2.33;;;17.10;54.80;;;;;;10443750;28;20072;-25
2023/02/09 08:46:13;;;;;;;2.75;2.00;;;16.90;55.50;;;;;;10441892;28;20130;-25
2023/02/09 08:51:16;;;;;;;6.00;2.10;;;17.20;54.90;;;;;;10449036;28;20084;-25
2023/02/09 08:56:18;;;;;;;4.97;2.78;;;16.90;55.40;;;;;;10437243;28;20067;-25
2023/02/09 09:01:21;;;;;;;8.48;2.63;;;16.90;55.50;;;;;;10446336;28;20107;-24
2023/02/09 09:06:23;;;;;;;9.55;3.88;;;17.10;55.20;;;;;;10455752;28;20049;-25
2023/02/09 09:11:25;;;;;;;6.20;2.97;;;16.90;54.80;;;;;;10457684;28;20144;-24
2023/02/09 09:16:28;;;;;;;8.50;2.80;;;17.00;55.30;;;;;;10452609;28;20045;-24
2023/02/09 09:21:30;;;;;;;7.82;3.35;;;16.80;55.80;;;;;;10447764;28;20373;-24
2023/02/09 09:26:33;;;;;;;5.03;2.67;;;16.70;56.00;;;;;;10457357;28;20476;-25
2023/02/09 09:31:37;;;;;;;6.63;2.45;;;16.90;55.80;;;;;;10447926;28;20485;-25
2023/02/09 09:36:39;;;;;;;5.88;2.70;;;16.70;56.20;;;;;;10446579;28;20045;-23
2023/02/09 09:41:41;;;;;;;5.20;3.13;;;16.90;55.40;;;;;;10444392;28;20480;-25
2023/02/09 09:46:47;;;;;;;7.47;2.50;;;17.00;55.30;;;;;;10444620;28;20475;-26
2023/02/09 09:51:53;;;;;;;4.10;2.40;;;16.20;56.60;;;;;;10441741;28;20045;-23
2023/02/09 09:56:56;;;;;;;7.32;2.88;;;16.80;55.40;;;;;;10444105;28;20071;-25
2023/02/09 10:02:03;;;;;;;8.10;2.92;;;16.80;55.40;;;;;;10439356;28;20474;-25
2023/02/09 10:07:15;;;;;;;6.18;2.78;;;16.80;55.40;;;;;;10446533;28;20075;-25
2023/02/09 10:12:28;;;;;;;5.18;2.55;;;15.70;58.20;;;;;;10446552;28;20096;-26
2023/02/09 10:17:32;;;;;;;5.28;2.42;;;16.70;55.40;;;;;;10445061;28;20055;-24
2023/02/09 10:22:34;;;;;;;5.28;2.90;;;16.00;56.90;;;;;;10444156;28;20052;-23
2023/02/09 10:27:36;;;;;;;5.07;2.33;;;16.10;56.90;;;;;;10445978;28;20073;-25
2023/02/09 10:32:43;;;;;;;9.57;6.38;;;16.50;55.80;;;;;;10445137;28;20370;-24
2023/02/09 10:37:45;;;;;;;5.13;2.65;;;14.70;57.60;;;;;;10446550;28;20110;-24
2023/02/09 10:42:55;;;;;;;6.72;3.85;;;15.80;57.50;;;;;;10446491;28;20045;-23
2023/02/09 10:48:00;;;;;;;7.43;3.80;;;15.60;54.80;;;;;;10446399;28;20106;-27
2023/02/09 10:53:14;;;;;;;7.22;3.50;;;16.10;56.30;;;;;;10445745;28;20542;-25
2023/02/09 10:58:24;;;;;;;4.57;2.78;;;16.30;55.90;;;;;;10439591;28;20055;-26
2023/02/09 11:03:27;;;;;;;5.10;3.45;;;16.00;57.00;;;;;;10441471;28;20491;-24
2023/02/09 11:08:38;;;;;;;7.63;4.05;;;16.00;56.80;;;;;;10447078;28;20045;-25
2023/02/09 11:13:41;;;;;;;10.77;4.88;;;16.30;55.80;;;;;;10438341;28;20057;-25
2023/02/09 11:18:51;;;;;;;5.53;3.42;;;16.30;55.10;;;;;;10443168;28;20080;-25
2023/02/09 11:23:59;;;;;;;5.50;3.15;;;16.40;55.60;;;;;;10441918;28;20064;-24
2023/02/09 11:29:09;;;;;;;7.13;2.83;;;16.30;56.20;;;;;;10443422;28;20138;-23
2023/02/09 11:34:29;;;;;;;4.85;2.60;;;16.80;54.90;;;;;;10439195;28;20092;-25
2023/02/09 11:39:41;;;;;;;4.57;2.88;;;16.80;54.50;;;;;;10440083;28;20077;-26
2023/02/09 11:44:47;;;;;;;6.85;3.05;;;16.70;55.00;;;;;;10443837;28;20057;-27
2023/02/09 11:49:53;;;;;;;11.73;4.45;;;16.90;54.80;;;;;;10440775;28;20045;-25
2023/02/09 11:55:02;;;;;;;4.90;2.80;;;16.80;55.20;;;;;;10422971;28;20053;-24
2023/02/09 12:00:06;;;;;;;5.90;2.65;;;16.90;55.50;;;;;;10449360;28;20048;-24
2023/02/09 12:05:13;;;;;;;7.38;2.47;;;16.90;55.70;;;;;;10449449;28;20123;-25
2023/02/09 12:10:24;;;;;;;3.67;2.50;;;16.90;55.80;;;;;;10446412;28;20051;-24
2023/02/09 12:15:35;;;;;;;2.38;2.10;;;16.80;56.30;;;;;;10453231;28;20084;-26
2023/02/09 12:20:51;;;;;;;4.90;3.03;;;16.90;56.50;;;;;;10450842;28;20073;-23
2023/02/09 12:25:58;;;;;;;10.45;4.18;;;16.90;56.50;;;;;;10449737;28;20051;-25
2023/02/09 12:31:10;;;;;;;5.43;3.00;;;16.80;56.70;;;;;;10449475;28;20640;-25
2023/02/09 12:36:28;;;;;;;5.63;2.85;;;16.90;56.40;;;;;;10447673;28;20131;-26
2023/02/09 12:41:51;;;;;;;6.43;2.63;;;16.90;56.50;;;;;;10445709;28;20517;-23
2023/02/09 12:46:56;;;;;;;6.72;3.22;;;16.90;56.50;;;;;;10446228;28;20573;-25
2023/02/09 12:52:14;;;;;;;4.95;2.80;;;16.70;56.90;;;;;;10447613;28;20045;-26
2023/02/09 12:57:55;;;;;;;9.18;5.47;;;16.60;57.60;;;;;;10446332;28;20473;-28
2023/02/09 13:03:10;;;;;;;3.88;3.10;;;16.50;58.20;;;;;;10447989;28;20103;-24
2023/02/09 13:08:28;;;;;;;4.95;2.95;;;16.50;58.70;;;;;;10446985;28;20076;-24
2023/02/09 13:13:46;;;;;;;4.97;3.10;;;16.50;58.50;;;;;;10442358;28;20398;-25
2023/02/09 13:18:58;;;;;;;6.18;3.00;;;16.80;58.40;;;;;;10444881;28;20049;-25
2023/02/09 13:24:03;;;;;;;5.95;2.97;;;16.80;58.40;;;;;;10453074;28;20131;-25
2023/02/09 13:29:11;;;;;;;6.25;3.72;;;17.00;57.20;;;;;;10445879;28;20127;-25
2023/02/09 13:34:29;;;;;;;6.47;4.00;;;17.00;56.90;;;;;;10449456;28;20136;-25
2023/02/09 13:39:36;;;;;;;4.22;3.03;;;16.90;57.40;;;;;;10443076;28;20052;-25
2023/02/09 13:44:44;;;;;;;5.28;3.00;;;17.40;56.60;;;;;;10449161;28;20053;-24
2023/02/09 13:49:58;;;;;;;5.20;3.28;;;17.60;56.20;;;;;;10445764;28;20485;-26
2023/02/09 13:55:10;;;;;;;6.22;4.07;;;17.30;57.20;;;;;;10446141;28;20056;-24
2023/02/09 14:00:22;;;;;;;5.70;3.43;;;17.30;57.70;;;;;;10447382;28;20041;-26
2023/02/09 14:05:37;;;;;;;5.03;3.40;;;17.30;58.00;;;;;;10452345;28;20136;-24
2023/02/09 14:10:43;;;;;;;4.75;2.65;;;17.80;56.90;;;;;;10447362;28;20048;-25
2023/02/09 14:16:06;;;;;;;7.72;2.97;;;18.10;56.30;;;;;;10445738;28;20059;-25
2023/02/09 14:21:24;;;;;;;7.80;2.78;;;18.30;55.90;;;;;;10439053;28;20045;-25
2023/02/09 14:26:29;;;;;;;10.45;5.15;;;18.40;55.80;;;;;;10440637;28;20463;-24
2023/02/09 14:31:34;;;;;;;5.88;3.03;;;18.10;56.20;;;;;;10443004;28;20055;-24
2023/02/09 14:36:38;;;;;;;6.10;2.88;;;18.30;56.20;;;;;;10442878;28;20049;-23
2023/02/09 14:41:40;;;;;;;8.85;3.67;;;18.30;56.40;;;;;;10442198;28;20068;-26
2023/02/09 14:46:49;;;;;;;8.27;3.60;;;17.70;57.70;;;;;;10441985;28;20507;-28
2023/02/09 14:52:02;;;;;;;7.07;3.13;;;17.60;58.60;;;;;;10444757;28;20489;-25
2023/02/09 14:57:04;;;;;;;18.75;9.20;;;18.20;57.10;;;;;;10442376;28;20045;-25
2023/02/09 15:02:15;;;;;;;6.07;3.63;;;17.00;58.70;;;;;;10436088;28;20566;-25
2023/02/09 15:07:20;;;;;;;7.40;3.42;;;16.60;61.20;;;;;;10438158;28;20417;-25
2023/02/09 15:12:25;;;;;;;28.30;10.18;;;16.30;63.80;;;;;;10442428;28;20053;-24
2023/02/09 15:17:29;;;;;;;20.02;11.05;;;15.70;64.60;;;;;;10443607;28;20076;-25
2023/02/09 15:22:33;;;;;;;23.33;9.27;;;15.90;63.10;;;;;;10447018;28;20072;-24
2023/02/09 15:27:38;;;;;;;12.52;5.60;;;16.00;63.00;;;;;;10443088;28;20102;-24
2023/02/09 15:32:40;;;;;;;8.05;3.47;;;17.30;61.00;;;;;;10443996;28;20048;-24
2023/02/09 15:37:46;;;;;;;23.88;10.55;;;16.10;63.30;;;;;;10449870;28;20091;-25
2023/02/09 15:48:09;;;;;;;10.15;3.78;;;16.70;62.50;;;;;;10450718;28;20084;-29
2023/02/09 15:53:14;;;;;;;5.93;3.60;;;17.30;60.60;;;;;;10450046;28;20044;-25
2023/02/09 15:58:19;;;;;;;6.95;3.50;;;15.00;69.10;;;;;;10448388;28;20653;-27
2023/02/09 16:03:21;;;;;;;8.43;4.15;;;16.80;65.10;;;;;;10450798;28;20040;-25
2023/02/09 16:08:26;;;;;;;6.88;2.88;;;16.90;64.40;;;;;;10463244;28;20136;-23
2023/02/09 16:13:28;;;;;;;7.10;3.75;;;15.70;70.10;;;;;;10447345;28;20507;-23
2023/02/09 16:18:30;;;;;;;6.72;1.92;;;16.70;64.90;;;;;;10450178;28;20052;-23
2023/02/09 16:23:34;;;;;;;8.10;2.22;;;17.50;63.10;;;;;;10453423;28;20059;-25
2023/02/09 16:28:36;;;;;;;4.47;2.00;;;18.10;61.30;;;;;;10446846;28;20149;-25
2023/02/09 16:33:40;;;;;;;3.13;2.05;;;18.30;60.30;;;;;;10444627;28;20428;-26
2023/02/09 16:38:43;;;;;;;4.35;2.15;;;18.40;59.90;;;;;;10448877;28;20095;-24
2023/02/09 16:43:45;;;;;;;6.22;2.28;;;17.80;62.00;;;;;;10448988;28;20056;-27
2023/02/09 16:48:47;;;;;;;4.78;2.22;;;17.60;62.70;;;;;;10450123;28;20099;-26
2023/02/09 16:53:52;;;;;;;5.20;2.15;;;17.30;61.90;;;;;;10448179;28;20084;-27
2023/02/09 16:58:54;;;;;;;9.80;2.33;;;17.80;61.80;;;;;;10447990;28;20059;-25
2023/02/09 17:03:56;;;;;;;14.02;8.05;;;17.40;63.00;;;;;;10449652;28;20057;-26
2023/02/09 17:09:00;;;;;;;9.75;6.00;;;15.10;60.20;;;;;;10449836;28;20072;-24
2023/02/09 17:14:02;;;;;;;4.55;1.98;;;17.10;59.80;;;;;;10448477;28;20144;-26
2023/02/09 17:19:07;;;;;;;3.92;2.08;;;17.90;61.60;;;;;;10442439;28;20073;-24
2023/02/09 17:24:15;;;;;;;3.45;2.45;;;18.20;60.30;;;;;;10442453;28;20124;-23
2023/02/09 17:29:20;;;;;;;3.88;1.67;;;17.80;61.00;;;;;;10447670;28;20088;-24
2023/02/09 17:34:25;;;;;;;3.78;2.38;;;17.50;62.10;;;;;;10445793;28;20045;-27
2023/02/09 17:39:29;;;;;;;3.03;1.98;;;18.00;60.60;;;;;;10447525;28;20128;-25
2023/02/09 17:44:30;;;;;;;5.18;2.15;;;17.70;60.80;;;;;;10452134;28;20484;-24
2023/02/09 17:49:33;;;;;;;3.30;1.75;;;18.10;60.00;;;;;;10442184;28;20091;-26
2023/02/09 17:54:36;;;;;;;5.53;2.20;;;18.20;59.70;;;;;;10444081;28;20060;-24
2023/02/09 17:59:38;;;;;;;4.15;2.42;;;18.20;59.50;;;;;;10438329;28;20416;-24
2023/02/09 18:04:39;;;;;;;4.45;2.55;;;18.20;59.80;;;;;;10444959;28;20057;-26
2023/02/09 18:09:43;;;;;;;6.38;2.88;;;18.00;60.10;;;;;;10448108;28;20446;-25
2023/02/09 18:14:45;;;;;;;12.73;5.55;;;18.10;59.80;;;;;;10445633;28;20122;-26
2023/02/09 18:19:47;;;;;;;22.55;9.70;;;18.20;59.40;;;;;;10445092;28;20500;-25
2023/02/09 18:24:50;;;;;;;23.30;8.32;;;18.30;59.40;;;;;;10445655;28;20053;-24
2023/02/09 18:29:52;;;;;;;18.23;8.05;;;18.30;59.60;;;;;;10441049;28;20049;-25
2023/02/09 18:34:55;;;;;;;19.65;8.68;;;18.30;59.60;;;;;;10443422;28;20049;-24
2023/02/09 18:39:58;;;;;;;26.02;11.35;;;18.20;59.80;;;;;;10445268;28;20150;-25
2023/02/09 18:45:00;;;;;;;34.70;13.95;;;18.30;59.80;;;;;;10441244;28;20048;-24
2023/02/09 18:50:02;;;;;;;27.05;12.60;;;18.10;59.90;;;;;;10442228;28;20084;-27
2023/02/09 18:55:06;;;;;;;28.58;14.15;;;18.20;59.80;;;;;;10446056;28;20095;-25
2023/02/09 19:00:11;;;;;;;33.50;13.18;;;18.20;59.90;;;;;;10442192;28;20088;-25
2023/02/09 19:05:14;;;;;;;32.65;13.15;;;18.20;60.00;;;;;;10447932;28;20056;-26
2023/02/09 19:10:19;;;;;;;31.58;13.07;;;18.30;60.10;;;;;;10440941;28;20069;-25
2023/02/09 19:15:24;;;;;;;34.40;15.32;;;18.30;60.20;;;;;;10442806;28;20585;-26
2023/02/09 19:20:28;;;;;;;34.47;14.35;;;18.30;60.20;;;;;;10446136;28;20566;-26
2023/02/09 19:25:32;;;;;;;31.23;13.65;;;18.30;60.20;;;;;;10442464;28;20048;-25
2023/02/09 19:30:34;;;;;;;26.17;11.18;;;18.30;60.20;;;;;;10444819;28;20132;-25
2023/02/09 19:35:36;;;;;;;28.25;12.13;;;18.30;60.30;;;;;;10440384;28;20507;-26
2023/02/09 19:40:41;;;;;;;29.42;14.20;;;18.40;60.30;;;;;;10441754;28;20045;-25
2023/02/09 19:45:43;;;;;;;26.83;12.27;;;18.40;60.30;;;;;;10442066;28;20060;-24
2023/02/09 19:50:44;;;;;;;28.38;11.85;;;18.50;60.30;;;;;;10435243;28;20061;-24
2023/02/09 19:55:49;;;;;;;27.92;12.07;;;18.50;60.30;;;;;;10440285;28;20049;-24
2023/02/09 20:00:52;;;;;;;30.70;14.13;;;18.50;60.40;;;;;;10437418;28;20041;-24
2023/02/09 20:05:54;;;;;;;18.35;7.65;;;18.50;60.30;;;;;;10444091;28;20077;-25
2023/02/09 20:10:58;;;;;;;17.42;5.05;;;18.70;59.80;;;;;;10441191;28;20049;-26
2023/02/09 20:16:00;;;;;;;7.43;3.45;;;18.70;60.00;;;;;;10441175;28;20067;-25
2023/02/09 20:21:01;;;;;;;8.90;3.28;;;18.80;59.80;;;;;;10446429;28;20041;-25
2023/02/09 20:26:10;;;;;;;13.10;4.75;;;18.80;59.90;;;;;;10442070;28;20049;-24
2023/02/09 20:31:12;;;;;;;18.05;5.07;;;18.80;60.00;;;;;;10447316;28;20117;-26
2023/02/09 20:36:15;;;;;;;12.52;4.50;;;18.80;60.00;;;;;;10448117;28;20482;-26
2023/02/09 20:41:19;;;;;;;10.55;3.78;;;18.70;59.90;;;;;;10445735;28;20063;-26
2023/02/09 20:51:58;;;;;;;7.72;2.80;;;18.60;59.80;;;;;;10352059;28;20081;-26
2023/02/09 20:57:01;;;;;;;10.73;3.22;;;18.70;59.50;;;;;;10421161;28;20045;-25
2023/02/09 21:02:03;;;;;;;6.60;3.03;;;18.60;59.60;;;;;;10443987;28;20053;-26
2023/02/09 21:07:05;;;;;;;8.55;3.45;;;18.70;59.30;;;;;;10445223;28;20055;-25
2023/02/09 21:12:08;;;;;;;8.85;3.47;;;18.60;59.40;;;;;;10441293;28;20139;-25
2023/02/09 21:17:11;;;;;;;8.93;2.90;;;18.50;59.60;;;;;;10441937;28;20655;-25
2023/02/09 21:22:14;;;;;;;9.50;2.92;;;18.60;59.30;;;;;;10446858;28;20525;-24
2023/02/09 21:27:18;;;;;;;8.10;2.88;;;18.70;59.10;;;;;;10442048;28;20495;-25
2023/02/09 21:32:19;;;;;;;10.40;2.78;;;18.50;59.30;;;;;;10444517;28;20048;-25
2023/02/09 21:37:21;;;;;;;7.05;2.80;;;18.60;59.10;;;;;;10447267;28;20069;-25
2023/02/09 21:42:29;;;;;;;14.77;3.35;;;18.60;59.10;;;;;;10445801;28;20055;-24
2023/02/09 21:47:34;;;;;;;8.32;2.25;;;18.60;59.80;;;;;;10444194;28;20056;-26
2023/02/09 21:52:36;;;;;;;6.95;3.00;;;18.50;59.50;;;;;;10444494;28;20394;-25
2023/02/09 21:57:39;;;;;;;9.48;2.60;;;18.50;59.60;;;;;;10444406;28;20053;-25
2023/02/09 22:02:41;;;;;;;8.65;2.60;;;18.50;59.60;;;;;;10445046;28;20269;-25
2023/02/09 22:07:44;;;;;;;10.88;2.30;;;18.50;59.60;;;;;;10449521;28;20049;-25
2023/02/09 22:12:48;;;;;;;7.10;3.00;;;18.40;59.60;;;;;;10443985;28;20141;-24
2023/02/09 22:17:50;;;;;;;6.28;2.40;;;18.30;59.60;;;;;;10444161;28;20057;-26
2023/02/09 22:22:52;;;;;;;8.02;2.47;;;18.30;59.70;;;;;;10443091;28;20503;-25
2023/02/09 22:27:55;;;;;;;4.70;2.20;;;18.30;59.70;;;;;;10440807;28;20045;-28
2023/02/09 22:32:57;;;;;;;4.40;2.50;;;18.20;59.80;;;;;;10439059;28;20152;-25
2023/02/09 22:37:59;;;;;;;8.10;2.47;;;18.10;59.80;;;;;;10443117;28;20151;-25
2023/02/09 22:43:02;;;;;;;8.05;2.47;;;18.10;59.90;;;;;;10435768;28;20504;-28
2023/02/09 22:48:04;;;;;;;5.28;2.17;;;18.00;60.00;;;;;;10423438;28;20045;-24
2023/02/09 22:53:06;;;;;;;5.50;2.45;;;18.00;60.00;;;;;;10433008;28;20102;-26
2023/02/09 22:58:09;;;;;;;6.32;2.40;;;18.00;60.00;;;;;;10431559;28;20161;-25
2023/02/09 23:03:11;;;;;;;3.95;1.90;;;17.90;60.00;;;;;;10440466;28;20084;-25
2023/02/09 23:08:13;;;;;;;6.97;2.40;;;17.90;60.00;;;;;;10442645;28;20126;-27
2023/02/09 23:13:16;;;;;;;5.32;2.08;;;17.90;60.00;;;;;;10444069;28;20386;-24
2023/02/09 23:18:18;;;;;;;3.50;2.33;;;17.90;60.00;;;;;;10442642;28;20057;-25
2023/02/09 23:23:20;;;;;;;7.25;1.88;;;17.90;59.90;;;;;;10447125;28;20081;-25
2023/02/09 23:28:23;;;;;;;4.10;1.90;;;17.80;59.80;;;;;;10442483;28;20069;-25
2023/02/09 23:33:25;;;;;;;6.60;2.35;;;17.80;59.90;;;;;;10441877;28;20386;-25
2023/02/09 23:38:27;;;;;;;4.20;1.87;;;17.80;59.90;;;;;;10438941;28;20080;-25
2023/02/09 23:43:30;;;;;;;4.57;2.53;;;17.80;59.70;;;;;;10439235;28;20725;-25
2023/02/09 23:48:32;;;;;;;3.38;1.52;;;17.70;59.70;;;;;;10439504;28;20135;-24
2023/02/09 23:53:35;;;;;;;3.75;1.77;;;17.70;59.70;;;;;;10441297;28;20045;-24
2023/02/09 23:58:40;;;;;;;4.13;2.00;;;17.70;59.70;;;;;;10447861;28;20055;-24
